Hovedside
METAR-TAF:

METAR-TAF

Lufthavner :

Christchurch internasjonale lufthavn

Christchurch, New Zealand

breddegrad: 43-29S, lengdegrad: 172-33E, høyde over havet: 38 m

Gjeldene værobservasjon

Denne rapporten ble laget for 42 minutter siden, klokken 21:30 UTC
Vind 1 kt fra Nord-nordvest
Temperatur 19°C
Luftfuktighet 83%
Trykk 1017 hPa
Sikt 10 km eller mer

METAR: NZCH 242130Z AUTO 33001KT 9999 NCD 19/16 Q1017 NOSIG

Tid: 11:12 (22:12 UTC)

Varsel

Denne rapporten ble laget for 5 timer og 10 minutter siden, klokken 17:02 UTC
Varsel gyldig fra 24. klokken 18 UTC til 25. klokken 18 UTC
Vind 5 kt fra Nord-nordøst
Sikt 10 km eller mer
ingen skyer under 1500 m og ingen bygeskyer
Midlertidig
fra 24. klokken 18 UTC til 24. klokken 20 UTC
Sikt: 1500 m
dis
Blir
fra 24. klokken 22 UTC til 25. klokken 00 UTC
Vind 15 kt fra Nord-nordøst

TAF: NZCH 241702Z 2418/2518 02005KT CAVOK TEMPO 2418/2420 1500 BR BECMG 2422/2500 02015KT

Værobservasjoner og værvarsel for over 4000 flyplasser (METAR- og TAF-rapporter).

Tilgjengelige stasjoner er representert av de røde og gule prikkene på kartet.

Hold musepekeren over prikken for å se navnet på stasjonen.

Klikk så for å se værobservasjoner og -varsler.

For å forandre kartet kan du klikke på den grønne knappen med svart kryss for å zoome inn, på den grønne knappen med strek for å zoome ut, eller på de grønne pilene for å se tilstøtende kart.


METAR-TAF: